Otar, Kazakhstan
Current Conditions -  °F | °C
As of 9:00 AM on Friday 28 Nov 2014 (Local Time) from UCFM Reporting Station
Haze Haze  
Wind Chill: 21°   Ceiling: 4000
Heat Index: 21°   Visibility: 1.6mi
Dew Point: 18°   Wind: 2mph
Humidity: 86%   Direction: NA
Pressure: 30.42"   Gusts: NA
Location:  43.54°N, 75.21°E
Report Text: UCFM 280300Z VRB01MPS 2600 BR OVC040 M06/M08 Q1030 R26/19//60NOSIG
Loading
Personal Weather Stations






























Interactive Weather Map New forecast layout! Learn more

10-Day Weather Forecast

Advertisements
Track Severe Weather on mobile